createdAt,value
2023-03-18T00:02:10.378Z,10.50
2023-03-18T00:04:43.043Z,10.50
2023-03-18T00:07:16.177Z,10.50
2023-03-18T00:09:49.170Z,10.50
2023-03-18T00:12:21.851Z,10.50
2023-03-18T00:14:54.611Z,10.40
2023-03-18T00:17:27.368Z,10.40
2023-03-18T00:20:05.779Z,10.40
2023-03-18T00:22:40.124Z,10.40
2023-03-18T00:25:15.315Z,10.40
2023-03-18T00:27:48.109Z,10.40
2023-03-18T00:30:22.319Z,10.40
2023-03-18T00:32:56.280Z,10.40
2023-03-18T00:35:30.516Z,10.30
2023-03-18T00:38:04.161Z,10.30
2023-03-18T00:40:43.361Z,10.40
2023-03-18T00:43:16.186Z,10.30
2023-03-18T00:45:50.480Z,10.30
2023-03-18T00:48:24.525Z,10.40
2023-03-18T00:50:57.495Z,10.30
2023-03-18T00:53:30.401Z,10.30
2023-03-18T00:56:03.110Z,10.30
2023-03-18T00:58:37.123Z,10.30
2023-03-18T01:01:12.468Z,10.30
2023-03-18T01:03:46.293Z,10.30
2023-03-18T01:06:26.322Z,10.30
2023-03-18T01:09:01.321Z,10.30
2023-03-18T01:11:34.002Z,10.30
2023-03-18T01:14:06.748Z,10.20
2023-03-18T01:16:39.523Z,10.20
2023-03-18T01:19:14.059Z,10.20
2023-03-18T01:21:46.736Z,10.20
2023-03-18T01:24:19.479Z,10.20
2023-03-18T01:26:52.252Z,10.20
2023-03-18T01:29:25.427Z,10.10
2023-03-18T01:37:08.967Z,9.90
2023-03-18T01:39:44.567Z,10.10
2023-03-18T01:42:23.581Z,10.00
2023-03-18T01:45:19.430Z,10.00
2023-03-18T01:47:55.630Z,10.00
2023-03-18T01:50:34.421Z,10.00
2023-03-18T01:53:11.856Z,9.90
2023-03-18T01:55:46.081Z,9.90
2023-03-18T01:58:35.103Z,9.90
2023-03-18T02:01:20.303Z,9.90
2023-03-18T02:03:55.410Z,9.80
2023-03-18T02:06:29.307Z,9.80
2023-03-18T02:11:43.597Z,9.50
2023-03-18T02:14:20.410Z,9.70
2023-03-18T02:17:08.415Z,9.70
2023-03-18T02:19:59.159Z,9.60
2023-03-18T02:22:38.306Z,9.60
2023-03-18T02:25:26.106Z,9.60
2023-03-18T02:28:14.290Z,9.60
2023-03-18T02:30:51.859Z,9.50
2023-03-18T02:33:30.581Z,9.50
2023-03-18T02:36:07.585Z,9.50
2023-03-18T02:38:45.771Z,9.50
2023-03-18T02:41:26.347Z,9.40
2023-03-18T02:44:00.115Z,9.40
2023-03-18T02:46:59.199Z,9.40
2023-03-18T02:49:32.632Z,9.30
2023-03-18T02:52:06.809Z,9.30
2023-03-18T02:54:39.499Z,9.30
2023-03-18T02:57:12.218Z,9.30
2023-03-18T02:59:47.287Z,9.20
2023-03-18T03:02:20.129Z,9.10
2023-03-18T03:04:52.870Z,9.00
2023-03-18T03:07:27.761Z,9.10
2023-03-18T03:10:02.968Z,9.10
2023-03-18T03:12:37.728Z,9.10
2023-03-18T03:15:11.039Z,9.00
2023-03-18T03:17:49.645Z,9.10
2023-03-18T03:20:23.611Z,9.00
2023-03-18T03:22:57.117Z,8.90
2023-03-18T03:25:30.762Z,8.90
2023-03-18T03:28:04.962Z,8.90
2023-03-18T03:30:37.697Z,8.90
2023-03-18T03:33:11.106Z,8.90
2023-03-18T03:35:45.464Z,8.90
2023-03-18T03:38:18.386Z,8.80
2023-03-18T03:40:51.380Z,8.80
2023-03-18T03:43:24.033Z,8.70
2023-03-18T03:45:56.710Z,8.70
2023-03-18T03:48:30.135Z,8.70
2023-03-18T03:51:03.537Z,8.70
2023-03-18T03:53:36.617Z,8.60
2023-03-18T03:56:11.305Z,8.50
2023-03-18T03:58:44.711Z,8.50
2023-03-18T04:01:17.717Z,8.50
2023-03-18T04:03:52.496Z,8.50
2023-03-18T04:06:25.174Z,8.40
2023-03-18T04:11:38.584Z,8.40
2023-03-18T04:14:11.281Z,8.50
2023-03-18T04:16:44.747Z,8.50
2023-03-18T04:19:17.595Z,8.40
2023-03-18T04:21:51.338Z,8.50
2023-03-18T04:24:24.159Z,8.40
2023-03-18T04:26:57.371Z,8.40
2023-03-18T04:29:30.782Z,8.40
2023-03-18T04:32:03.976Z,8.50
2023-03-18T04:34:38.462Z,8.50
2023-03-18T04:37:14.278Z,8.50
2023-03-18T04:39:50.234Z,8.40
2023-03-18T04:42:23.461Z,8.50
2023-03-18T04:44:56.435Z,8.50
2023-03-18T04:47:29.218Z,8.50
2023-03-18T04:50:04.565Z,8.40
2023-03-18T04:52:41.890Z,8.40
2023-03-18T04:55:20.422Z,8.40
2023-03-18T04:57:53.454Z,8.30
2023-03-18T05:00:28.618Z,8.30
2023-03-18T05:03:11.931Z,8.30
2023-03-18T05:05:45.209Z,8.20
2023-03-18T05:08:20.496Z,8.20
2023-03-18T05:10:54.418Z,8.20
2023-03-18T05:13:28.443Z,8.20
2023-03-18T05:16:01.367Z,8.20
2023-03-18T05:18:34.818Z,8.20
2023-03-18T05:21:10.020Z,8.20
2023-03-18T05:23:44.327Z,8.10
2023-03-18T05:26:17.396Z,8.20
2023-03-18T05:28:52.519Z,8.10
2023-03-18T05:31:43.558Z,8.10
2023-03-18T05:34:16.472Z,8.00
2023-03-18T05:36:50.846Z,8.00
2023-03-18T05:39:23.577Z,8.00
2023-03-18T05:41:56.558Z,8.00
2023-03-18T05:44:33.815Z,7.90
2023-03-18T05:47:09.250Z,8.00
2023-03-18T05:49:58.197Z,8.00
2023-03-18T05:52:31.069Z,7.90
2023-03-18T05:55:08.111Z,7.90
2023-03-18T05:57:43.924Z,7.80
2023-03-18T06:00:18.925Z,7.80
2023-03-18T06:02:55.620Z,7.80
2023-03-18T06:05:29.634Z,7.80
2023-03-18T06:08:03.069Z,7.80
2023-03-18T06:10:35.896Z,7.80
2023-03-18T06:13:11.487Z,7.80
2023-03-18T06:15:44.779Z,7.80
2023-03-18T06:18:18.436Z,7.80
2023-03-18T06:20:51.168Z,7.70
2023-03-18T06:23:24.144Z,7.70
2023-03-18T06:25:57.010Z,7.80
2023-03-18T06:28:36.204Z,7.80
2023-03-18T06:31:14.311Z,7.80
2023-03-18T06:33:47.248Z,7.80
2023-03-18T06:36:22.386Z,7.90
2023-03-18T06:38:57.617Z,7.90
2023-03-18T06:41:31.554Z,7.90
2023-03-18T06:44:15.897Z,8.00
2023-03-18T06:46:48.735Z,8.10
2023-03-18T06:49:22.225Z,8.10
2023-03-18T06:52:00.426Z,8.10
2023-03-18T06:54:34.513Z,8.20
2023-03-18T06:57:08.399Z,8.20
2023-03-18T06:59:41.963Z,8.30
2023-03-18T07:02:15.422Z,8.40
2023-03-18T07:04:48.736Z,8.40
2023-03-18T07:07:22.885Z,8.50
2023-03-18T07:09:56.007Z,8.60
2023-03-18T07:12:28.657Z,8.70
2023-03-18T07:15:02.416Z,8.90
2023-03-18T07:17:35.133Z,9.00
2023-03-18T07:20:08.433Z,9.10
2023-03-18T07:22:44.174Z,9.30
2023-03-18T07:25:17.914Z,9.50
2023-03-18T07:27:50.645Z,9.60
2023-03-18T07:30:24.455Z,9.70
2023-03-18T07:32:57.640Z,9.80
2023-03-18T07:35:32.625Z,9.90
2023-03-18T07:38:05.580Z,10.10
2023-03-18T07:40:38.259Z,10.10
2023-03-18T07:43:11.493Z,10.30
2023-03-18T07:45:44.401Z,10.50
2023-03-18T07:48:17.178Z,10.70
2023-03-18T07:50:50.177Z,10.90
2023-03-18T07:53:33.976Z,11.00
2023-03-18T07:56:08.025Z,11.10
2023-03-18T07:58:40.937Z,11.20
2023-03-18T08:01:16.530Z,11.20
2023-03-18T08:03:49.481Z,11.20
2023-03-18T08:06:22.737Z,11.20
2023-03-18T08:08:55.475Z,11.10
2023-03-18T08:11:28.229Z,11.10
2023-03-18T08:14:01.569Z,11.30
2023-03-18T08:16:34.480Z,11.50
2023-03-18T08:19:07.197Z,11.50
2023-03-18T08:21:40.032Z,11.60
2023-03-18T08:24:12.746Z,11.70
2023-03-18T08:26:45.650Z,11.80
2023-03-18T08:29:18.370Z,11.80
2023-03-18T08:31:51.282Z,11.80
2023-03-18T08:34:24.731Z,11.80
2023-03-18T08:36:57.472Z,11.80
2023-03-18T08:39:30.337Z,11.90
2023-03-18T08:42:06.310Z,12.00
2023-03-18T08:44:40.219Z,12.10
2023-03-18T08:47:12.987Z,12.10
2023-03-18T08:49:46.224Z,12.10
2023-03-18T08:52:19.932Z,12.10
2023-03-18T08:54:52.928Z,12.10
2023-03-18T08:57:27.847Z,12.10
2023-03-18T09:00:00.628Z,12.20
2023-03-18T09:02:33.809Z,12.30
2023-03-18T09:05:06.820Z,12.30
2023-03-18T09:07:39.924Z,12.40
2023-03-18T09:10:14.499Z,12.50
2023-03-18T09:12:48.067Z,12.70
2023-03-18T09:15:20.877Z,12.70
2023-03-18T09:18:09.853Z,12.70
2023-03-18T09:20:45.449Z,12.70
2023-03-18T09:23:18.604Z,12.70
2023-03-18T09:25:51.523Z,12.80
2023-03-18T09:28:24.258Z,12.90
2023-03-18T09:30:57.225Z,12.90
2023-03-18T09:33:30.066Z,12.90
2023-03-18T09:36:04.363Z,12.90
2023-03-18T09:38:37.301Z,12.80
2023-03-18T09:41:10.087Z,12.80
2023-03-18T09:44:12.780Z,12.80
2023-03-18T09:47:04.250Z,12.90
2023-03-18T09:49:57.530Z,12.80
2023-03-18T09:52:37.046Z,12.70
2023-03-18T09:55:30.401Z,12.70
2023-03-18T09:58:15.012Z,12.70
2023-03-18T10:00:49.830Z,12.70
2023-03-18T10:03:30.361Z,12.80
2023-03-18T10:06:23.193Z,12.90
2023-03-18T10:09:21.732Z,13.00
2023-03-18T10:12:30.807Z,13.10
2023-03-18T10:15:17.638Z,13.00
2023-03-18T10:17:59.825Z,13.00
2023-03-18T10:20:39.827Z,12.90
2023-03-18T10:23:23.184Z,12.90
2023-03-18T10:26:06.334Z,12.90
2023-03-18T10:29:01.687Z,12.90
2023-03-18T10:32:16.122Z,12.90
2023-03-18T10:34:57.483Z,12.90
2023-03-18T10:38:17.455Z,13.10
2023-03-18T10:40:50.248Z,13.30
2023-03-18T10:43:28.130Z,13.30
2023-03-18T10:46:06.049Z,13.40
2023-03-18T10:48:45.821Z,13.40
2023-03-18T10:51:56.383Z,13.40
2023-03-18T10:54:35.374Z,13.40
2023-03-18T10:57:14.066Z,13.40
2023-03-18T10:59:47.702Z,13.30
2023-03-18T11:02:30.682Z,13.30
2023-03-18T11:05:18.956Z,13.40
2023-03-18T11:08:28.793Z,13.50
2023-03-18T11:11:28.619Z,13.70
2023-03-18T11:14:07.477Z,13.80
2023-03-18T11:16:42.527Z,14.00
2023-03-18T11:19:31.927Z,14.40
2023-03-18T11:22:17.374Z,14.80
2023-03-18T11:25:18.742Z,15.20
2023-03-18T11:27:57.264Z,15.30
2023-03-18T11:30:43.806Z,15.20
2023-03-18T11:33:17.746Z,15.00
2023-03-18T11:35:53.636Z,14.90
2023-03-18T11:38:29.971Z,14.80
2023-03-18T11:41:23.754Z,14.70
2023-03-18T11:44:07.596Z,14.90
2023-03-18T11:46:58.843Z,15.20
2023-03-18T11:49:31.928Z,15.30
2023-03-18T11:52:13.774Z,15.70
2023-03-18T11:55:01.511Z,16.20
2023-03-18T11:57:43.742Z,16.80
2023-03-18T12:00:42.225Z,17.40
2023-03-18T12:03:21.496Z,17.90
2023-03-18T12:06:35.929Z,18.00
2023-03-18T12:09:36.859Z,18.10
2023-03-18T12:12:27.944Z,18.60
2023-03-18T12:15:13.750Z,19.00
2023-03-18T12:18:18.237Z,18.80
2023-03-18T12:21:12.637Z,18.50
2023-03-18T12:23:51.211Z,18.10
2023-03-18T12:26:59.613Z,17.70
2023-03-18T12:29:46.444Z,17.20
2023-03-18T12:32:35.342Z,16.70
2023-03-18T12:35:22.113Z,16.40
2023-03-18T12:38:04.739Z,16.10
2023-03-18T12:40:48.489Z,15.70
2023-03-18T12:43:49.215Z,15.40
2023-03-18T12:46:32.771Z,15.30
2023-03-18T12:49:19.637Z,15.20
2023-03-18T12:52:06.370Z,15.20
2023-03-18T12:54:59.528Z,15.10
2023-03-18T12:57:45.264Z,15.30
2023-03-18T13:00:30.248Z,15.80
2023-03-18T13:03:38.297Z,16.80
2023-03-18T13:06:27.099Z,17.50
2023-03-18T13:09:21.896Z,17.70
2023-03-18T13:12:09.849Z,17.60
2023-03-18T13:14:42.666Z,17.50
2023-03-18T13:17:38.794Z,17.50
2023-03-18T13:20:24.248Z,17.40
2023-03-18T13:23:16.019Z,17.20
2023-03-18T13:25:57.743Z,17.10
2023-03-18T13:28:54.086Z,16.90
2023-03-18T13:31:33.175Z,16.80
2023-03-18T13:34:17.820Z,16.70
2023-03-18T13:37:18.386Z,16.60
2023-03-18T13:40:29.459Z,16.60
2023-03-18T13:43:04.393Z,16.60
2023-03-18T13:45:45.025Z,16.60
2023-03-18T13:48:27.860Z,16.40
2023-03-18T13:51:20.094Z,16.20
2023-03-18T13:53:56.636Z,16.00
2023-03-18T13:56:45.566Z,15.90
2023-03-18T13:59:33.225Z,15.90
2023-03-18T14:02:45.541Z,15.90
2023-03-18T14:05:48.555Z,15.80
2023-03-18T14:08:44.044Z,15.70
2023-03-18T14:11:17.050Z,15.50
2023-03-18T14:14:05.630Z,15.40
2023-03-18T14:16:41.267Z,15.20
2023-03-18T14:19:22.110Z,15.20
2023-03-18T14:22:13.608Z,15.10
2023-03-18T14:24:47.904Z,15.20
2023-03-18T14:27:22.599Z,15.30
2023-03-18T14:29:56.845Z,15.40
2023-03-18T14:32:38.702Z,15.50
2023-03-18T14:35:17.647Z,15.60
2023-03-18T14:38:02.525Z,15.60
2023-03-18T14:40:48.172Z,15.60
2023-03-18T14:43:29.918Z,15.60
2023-03-18T14:46:17.462Z,15.60
2023-03-18T14:48:53.961Z,15.60
2023-03-18T14:51:31.473Z,15.60
2023-03-18T14:54:19.324Z,15.60
2023-03-18T14:56:54.251Z,15.50
2023-03-18T14:59:26.990Z,15.50
2023-03-18T15:02:03.005Z,15.50
2023-03-18T15:04:36.330Z,15.50
2023-03-18T15:07:09.267Z,15.50
2023-03-18T15:09:43.721Z,15.50
2023-03-18T15:12:27.554Z,15.50
2023-03-18T15:15:00.448Z,15.60
2023-03-18T15:17:33.457Z,15.60
2023-03-18T15:20:06.940Z,15.70
2023-03-18T15:22:39.921Z,15.60
2023-03-18T15:25:19.302Z,15.60
2023-03-18T15:27:54.852Z,15.60
2023-03-18T15:30:33.897Z,15.60
2023-03-18T15:33:17.784Z,15.60
2023-03-18T15:36:03.133Z,15.60
2023-03-18T15:38:36.644Z,15.60
2023-03-18T15:41:12.061Z,15.60
2023-03-18T15:43:47.312Z,15.60
2023-03-18T15:46:30.923Z,15.70
2023-03-18T15:49:05.401Z,15.70
2023-03-18T15:51:47.759Z,15.70
2023-03-18T15:54:29.876Z,15.70
2023-03-18T15:57:11.815Z,15.70
2023-03-18T15:59:44.677Z,15.70
2023-03-18T16:02:18.694Z,15.70
2023-03-18T16:04:51.896Z,15.70
2023-03-18T16:07:28.210Z,15.70
2023-03-18T16:10:01.612Z,15.60
2023-03-18T16:12:34.382Z,15.50
2023-03-18T16:15:13.817Z,15.50
2023-03-18T16:17:53.353Z,15.50
2023-03-18T16:20:29.071Z,15.40
2023-03-18T16:23:01.800Z,15.30
2023-03-18T16:25:35.133Z,15.20
2023-03-18T16:28:22.123Z,15.10
2023-03-18T16:30:57.845Z,15.00
2023-03-18T16:33:30.824Z,15.10
2023-03-18T16:36:05.778Z,15.00
2023-03-18T16:38:41.040Z,15.00
2023-03-18T16:41:14.706Z,14.90
2023-03-18T16:43:49.086Z,14.80
2023-03-18T16:46:23.886Z,14.80
2023-03-18T16:48:56.881Z,14.70
2023-03-18T16:51:29.516Z,14.60
2023-03-18T16:54:02.230Z,14.60
2023-03-18T16:56:34.964Z,14.50
2023-03-18T16:59:14.082Z,14.50
2023-03-18T17:01:46.841Z,14.40
2023-03-18T17:04:28.726Z,14.40
2023-03-18T17:07:04.806Z,14.40
2023-03-18T17:09:38.682Z,14.40
2023-03-18T17:12:11.999Z,14.40
2023-03-18T17:14:53.719Z,14.40
2023-03-18T17:17:33.021Z,14.40
2023-03-18T17:20:16.989Z,14.40
2023-03-18T17:22:49.755Z,14.40
2023-03-18T17:25:25.506Z,14.30
2023-03-18T17:28:02.589Z,14.30
2023-03-18T17:30:38.822Z,14.30
2023-03-18T17:33:33.133Z,14.30
2023-03-18T17:36:07.430Z,14.20
2023-03-18T17:38:41.029Z,14.20
2023-03-18T17:41:20.785Z,14.20
2023-03-18T17:43:53.551Z,14.10
2023-03-18T17:46:26.242Z,14.10
2023-03-18T17:48:59.196Z,14.00
2023-03-18T17:51:32.719Z,13.90
2023-03-18T17:54:06.153Z,13.90
2023-03-18T17:56:40.458Z,13.80
2023-03-18T17:59:16.121Z,13.70
2023-03-18T18:01:50.564Z,13.60
2023-03-18T18:04:24.894Z,13.60
2023-03-18T18:06:57.947Z,13.50
2023-03-18T18:09:30.649Z,13.40
2023-03-18T18:12:05.349Z,13.30
2023-03-18T18:14:39.815Z,13.30
2023-03-18T18:17:15.027Z,13.20
2023-03-18T18:19:47.923Z,13.10
2023-03-18T18:22:22.964Z,13.10
2023-03-18T18:24:57.122Z,13.00
2023-03-18T18:27:31.039Z,13.00
2023-03-18T18:30:04.292Z,12.90
2023-03-18T18:32:37.210Z,12.90
2023-03-18T18:35:18.205Z,12.80
2023-03-18T18:37:51.211Z,12.80
2023-03-18T18:40:23.889Z,12.80
2023-03-18T18:42:56.934Z,12.70
2023-03-18T18:45:30.231Z,12.70
2023-03-18T18:48:10.766Z,12.60
2023-03-18T18:50:44.913Z,12.50
2023-03-18T18:53:24.587Z,12.40
2023-03-18T18:56:00.109Z,12.30
2023-03-18T18:58:33.499Z,12.30
2023-03-18T19:01:06.588Z,12.20
2023-03-18T19:03:41.370Z,12.20
2023-03-18T19:06:29.226Z,12.10
2023-03-18T19:11:48.486Z,12.00
2023-03-18T19:14:27.439Z,11.90
2023-03-18T19:17:00.615Z,11.80
2023-03-18T19:19:37.104Z,11.70
2023-03-18T19:22:15.314Z,11.70
2023-03-18T19:24:49.889Z,11.70
2023-03-18T19:27:24.058Z,11.60
2023-03-18T19:29:59.683Z,11.60
2023-03-18T19:32:32.382Z,11.60
2023-03-18T19:35:05.618Z,11.60
2023-03-18T19:37:42.211Z,11.60
2023-03-18T19:40:26.942Z,11.60
2023-03-18T19:43:00.971Z,11.60
2023-03-18T19:45:34.086Z,11.50
2023-03-18T19:48:07.675Z,11.50
2023-03-18T19:50:41.092Z,11.40
2023-03-18T19:53:15.844Z,11.40
2023-03-18T19:55:48.821Z,11.40
2023-03-18T19:58:26.580Z,11.30
2023-03-18T20:01:01.579Z,11.30
2023-03-18T20:03:35.286Z,11.30
2023-03-18T20:06:08.500Z,11.20
2023-03-18T20:08:41.508Z,11.20
2023-03-18T20:11:16.115Z,11.20
2023-03-18T20:13:48.767Z,11.20
2023-03-18T20:16:22.228Z,11.20
2023-03-18T20:18:55.546Z,11.20
2023-03-18T20:21:30.814Z,11.20
2023-03-18T20:24:07.990Z,11.20
2023-03-18T20:26:40.666Z,11.20
2023-03-18T20:29:17.952Z,11.20
2023-03-18T20:31:50.710Z,11.20
2023-03-18T20:34:23.611Z,11.20
2023-03-18T20:36:56.443Z,11.20
2023-03-18T20:39:29.076Z,11.20
2023-03-18T20:42:01.876Z,11.20
2023-03-18T20:44:34.524Z,11.10
2023-03-18T20:47:07.375Z,11.10
2023-03-18T20:49:44.367Z,11.10
2023-03-18T20:52:25.909Z,11.10
2023-03-18T20:54:58.900Z,11.10
2023-03-18T20:57:31.670Z,11.10
2023-03-18T21:00:06.851Z,11.10
2023-03-18T21:02:40.648Z,11.20
2023-03-18T21:05:14.091Z,11.20
2023-03-18T21:07:49.580Z,11.10
2023-03-18T21:10:24.837Z,11.10
2023-03-18T21:12:57.632Z,11.00
2023-03-18T21:15:30.316Z,11.00
2023-03-18T21:18:04.552Z,10.90
2023-03-18T21:20:37.346Z,10.90
2023-03-18T21:23:28.537Z,10.80
2023-03-18T21:26:01.891Z,10.80
2023-03-18T21:28:34.851Z,10.80
2023-03-18T21:31:22.581Z,10.80
2023-03-18T21:33:57.361Z,10.80
2023-03-18T21:36:30.732Z,10.80
2023-03-18T21:39:03.689Z,10.90
2023-03-18T21:41:36.572Z,11.00
2023-03-18T21:44:11.543Z,11.10
2023-03-18T21:46:44.246Z,11.30
2023-03-18T21:49:17.012Z,11.40
2023-03-18T21:51:49.704Z,11.50
2023-03-18T21:54:22.647Z,11.60
2023-03-18T21:56:55.902Z,11.70
2023-03-18T21:59:28.648Z,11.80
2023-03-18T22:02:01.363Z,11.80
2023-03-18T22:04:34.064Z,11.90
2023-03-18T22:07:13.104Z,11.90
2023-03-18T22:09:46.086Z,11.90
2023-03-18T22:12:28.168Z,11.90
2023-03-18T22:15:01.083Z,11.90
2023-03-18T22:17:34.305Z,11.90
2023-03-18T22:20:07.369Z,12.00
2023-03-18T22:22:40.254Z,12.00
2023-03-18T22:25:33.820Z,11.90
2023-03-18T22:28:06.595Z,11.90
2023-03-18T22:30:41.940Z,11.90
2023-03-18T22:33:30.381Z,11.90
2023-03-18T22:36:03.148Z,11.80
2023-03-18T22:38:35.909Z,11.80
2023-03-18T22:41:20.976Z,11.80
2023-03-18T22:43:53.710Z,11.80
2023-03-18T22:46:28.128Z,11.80
2023-03-18T22:49:06.111Z,11.80
2023-03-18T22:51:41.577Z,11.80
2023-03-18T22:54:18.620Z,11.80
2023-03-18T22:56:51.546Z,11.80
2023-03-18T22:59:24.236Z,11.80
2023-03-18T23:01:57.145Z,11.80
2023-03-18T23:04:30.326Z,11.70
2023-03-18T23:07:03.134Z,11.70
2023-03-18T23:09:44.225Z,11.70
2023-03-18T23:12:25.599Z,11.60
2023-03-18T23:14:59.180Z,11.60
2023-03-18T23:17:32.115Z,11.50
2023-03-18T23:20:05.124Z,11.40
2023-03-18T23:22:37.894Z,11.30
2023-03-18T23:25:17.806Z,11.30
2023-03-18T23:27:50.601Z,11.30
2023-03-18T23:30:23.433Z,11.20
2023-03-18T23:32:56.919Z,11.20
2023-03-18T23:35:29.730Z,11.10
2023-03-18T23:38:02.400Z,11.10
2023-03-18T23:40:35.499Z,11.10
2023-03-18T23:43:09.002Z,11.00
2023-03-18T23:45:42.160Z,11.00
2023-03-18T23:48:14.875Z,11.00
2023-03-18T23:50:47.758Z,11.00
2023-03-18T23:53:20.745Z,11.00
2023-03-18T23:55:53.542Z,10.90
2023-03-18T23:58:26.297Z,10.80
